createdAt,value
2018-05-15T00:00:07.479Z,14.15
2018-05-15T00:01:07.511Z,14.10
2018-05-15T00:02:07.547Z,14.09
2018-05-15T00:03:07.582Z,14.17
2018-05-15T00:04:07.612Z,14.21
2018-05-15T00:05:07.648Z,14.09
2018-05-15T00:06:07.680Z,14.20
2018-05-15T00:07:07.712Z,14.22
2018-05-15T00:08:07.745Z,14.22
2018-05-15T00:09:07.779Z,14.22
2018-05-15T00:10:07.813Z,14.29
2018-05-15T00:11:07.849Z,14.27
2018-05-15T00:12:07.878Z,14.45
2018-05-15T00:13:07.911Z,14.40
2018-05-15T00:14:07.946Z,14.46
2018-05-15T00:15:07.979Z,14.45
2018-05-15T00:16:08.011Z,14.46
2018-05-15T00:17:08.046Z,14.51
2018-05-15T00:18:08.078Z,14.52
2018-05-15T00:19:08.113Z,14.62
2018-05-15T00:20:08.151Z,14.60
2018-05-15T00:21:08.179Z,14.64
2018-05-15T00:22:08.213Z,14.64
2018-05-15T00:23:08.246Z,14.57
2018-05-15T00:24:08.278Z,14.43
2018-05-15T00:25:08.312Z,14.52
2018-05-15T00:26:08.345Z,14.51
2018-05-15T00:27:08.380Z,14.46
2018-05-15T00:28:08.411Z,14.36
2018-05-15T00:29:08.447Z,14.47
2018-05-15T00:30:08.480Z,14.54
2018-05-15T00:31:08.517Z,14.47
2018-05-15T00:32:08.546Z,14.40
2018-05-15T00:33:08.580Z,14.42
2018-05-15T00:34:08.613Z,14.43
2018-05-15T00:35:08.647Z,14.42
2018-05-15T00:36:08.681Z,14.35
2018-05-15T00:37:08.713Z,14.35
2018-05-15T00:38:08.747Z,14.40
2018-05-15T00:39:08.780Z,14.37
2018-05-15T00:40:08.813Z,14.43
2018-05-15T00:41:08.850Z,14.46
2018-05-15T00:42:08.880Z,14.50
2018-05-15T00:43:08.915Z,14.54
2018-05-15T00:44:08.970Z,14.55
2018-05-15T00:45:08.980Z,14.50
2018-05-15T00:46:09.017Z,14.54
2018-05-15T00:47:09.049Z,14.58
2018-05-15T00:48:09.080Z,14.52
2018-05-15T00:49:09.115Z,14.35
2018-05-15T00:50:09.147Z,14.32
2018-05-15T00:51:09.182Z,14.40
2018-05-15T00:52:09.215Z,14.46
2018-05-15T00:53:09.247Z,14.35
2018-05-15T00:54:09.283Z,14.33
2018-05-15T00:55:09.319Z,14.37
2018-05-15T00:56:09.347Z,14.46
2018-05-15T00:57:09.383Z,14.43
2018-05-15T00:58:09.420Z,14.51
2018-05-15T00:59:09.450Z,14.50
2018-05-15T01:00:09.483Z,14.50
2018-05-15T01:01:09.517Z,14.58
2018-05-15T01:02:09.553Z,14.45
2018-05-15T01:03:09.584Z,14.54
2018-05-15T01:04:09.617Z,14.47
2018-05-15T01:05:09.654Z,14.50
2018-05-15T01:06:09.684Z,14.47
2018-05-15T01:07:09.718Z,14.47
2018-05-15T01:08:09.750Z,14.52
2018-05-15T01:09:09.784Z,14.46
2018-05-15T01:10:09.821Z,14.46
2018-05-15T01:11:09.854Z,14.45
2018-05-15T01:12:09.886Z,14.45
2018-05-15T01:13:09.920Z,14.50
2018-05-15T01:14:09.954Z,14.45
2018-05-15T01:15:09.987Z,14.33
2018-05-15T01:16:10.021Z,14.42
2018-05-15T01:17:10.057Z,14.42
2018-05-15T01:18:10.091Z,14.39
2018-05-15T01:19:10.122Z,14.47
2018-05-15T01:20:10.155Z,14.28
2018-05-15T01:21:10.190Z,14.32
2018-05-15T01:22:10.223Z,14.29
2018-05-15T01:23:10.256Z,14.25
2018-05-15T01:24:10.288Z,14.29
2018-05-15T01:25:10.323Z,14.35
2018-05-15T01:26:10.357Z,14.22
2018-05-15T01:27:10.390Z,14.32
2018-05-15T01:28:10.424Z,14.29
2018-05-15T01:29:10.459Z,14.33
2018-05-15T01:30:10.491Z,14.46
2018-05-15T01:31:10.525Z,14.40
2018-05-15T01:32:10.557Z,14.46
2018-05-15T01:33:10.591Z,14.50
2018-05-15T01:34:10.625Z,14.51
2018-05-15T01:35:10.657Z,14.47
2018-05-15T01:36:10.691Z,14.45
2018-05-15T01:37:10.808Z,14.64
2018-05-15T01:38:10.759Z,14.61
2018-05-15T01:39:10.793Z,14.62
2018-05-15T01:40:10.826Z,14.47
2018-05-15T01:41:10.859Z,14.47
2018-05-15T01:42:10.893Z,14.50
2018-05-15T01:43:10.927Z,14.45
2018-05-15T01:44:10.961Z,14.55
2018-05-15T01:45:10.998Z,14.62
2018-05-15T01:46:11.027Z,14.60
2018-05-15T01:47:11.060Z,14.61
2018-05-15T01:48:11.094Z,14.62
2018-05-15T01:49:11.128Z,14.65
2018-05-15T01:50:11.160Z,14.52
2018-05-15T01:51:11.194Z,14.50
2018-05-15T01:52:11.227Z,14.57
2018-05-15T01:53:11.261Z,14.61
2018-05-15T01:54:11.297Z,14.50
2018-05-15T01:55:11.328Z,14.52
2018-05-15T01:56:11.359Z,14.46
2018-05-15T01:57:11.393Z,14.43
2018-05-15T01:58:11.428Z,14.42
2018-05-15T01:59:11.466Z,14.37
2018-05-15T02:00:11.496Z,14.27
2018-05-15T02:01:11.526Z,14.42
2018-05-15T02:02:11.560Z,14.35
2018-05-15T02:03:11.596Z,14.46
2018-05-15T02:04:11.631Z,14.42
2018-05-15T02:05:11.660Z,14.50
2018-05-15T02:06:11.707Z,14.50
2018-05-15T02:07:11.729Z,14.43
2018-05-15T02:08:11.762Z,14.47
2018-05-15T02:09:11.794Z,14.47
2018-05-15T02:10:11.830Z,14.52
2018-05-15T02:11:11.862Z,14.42
2018-05-15T02:12:11.895Z,14.39
2018-05-15T02:13:11.929Z,14.40
2018-05-15T02:14:11.962Z,14.42
2018-05-15T02:15:11.997Z,14.40
2018-05-15T02:16:12.084Z,14.35
2018-05-15T02:17:12.063Z,14.43
2018-05-15T02:18:12.097Z,14.39
2018-05-15T02:19:12.131Z,14.43
2018-05-15T02:20:12.162Z,14.36
2018-05-15T02:21:12.197Z,14.37
2018-05-15T02:22:12.230Z,14.43
2018-05-15T02:23:12.264Z,14.33
2018-05-15T02:24:12.298Z,14.40
2018-05-15T02:25:12.331Z,14.40
2018-05-15T02:26:12.366Z,14.40
2018-05-15T02:27:12.398Z,14.36
2018-05-15T02:28:12.435Z,14.35
2018-05-15T02:29:12.464Z,14.39
2018-05-15T02:30:12.499Z,14.43
2018-05-15T02:31:12.533Z,14.39
2018-05-15T02:32:12.572Z,14.47
2018-05-15T02:33:12.599Z,14.39
2018-05-15T02:34:12.632Z,14.45
2018-05-15T02:35:12.667Z,14.54
2018-05-15T02:36:12.701Z,14.50
2018-05-15T02:37:12.735Z,14.45
2018-05-15T02:38:12.767Z,14.50
2018-05-15T02:39:12.800Z,14.57
2018-05-15T02:40:12.834Z,14.55
2018-05-15T02:41:12.868Z,14.51
2018-05-15T02:42:12.902Z,14.51
2018-05-15T02:43:12.935Z,14.51
2018-05-15T02:44:12.971Z,14.52
2018-05-15T02:45:13.006Z,14.51
2018-05-15T02:46:13.035Z,14.57
2018-05-15T02:47:13.070Z,14.43
2018-05-15T02:48:13.107Z,14.50
2018-05-15T02:49:13.136Z,14.52
2018-05-15T02:50:13.168Z,14.47
2018-05-15T02:51:13.202Z,14.50
2018-05-15T02:52:13.237Z,14.39
2018-05-15T02:53:13.271Z,14.42
2018-05-15T02:54:13.304Z,14.43
2018-05-15T02:55:13.338Z,14.46
2018-05-15T02:56:13.368Z,14.40
2018-05-15T02:57:13.404Z,14.39
2018-05-15T02:58:13.441Z,14.32
2018-05-15T02:59:13.471Z,14.40
2018-05-15T03:00:13.503Z,14.42
2018-05-15T03:01:13.538Z,14.50
2018-05-15T03:02:13.570Z,14.47
2018-05-15T03:03:13.608Z,14.51
2018-05-15T03:04:13.639Z,14.51
2018-05-15T03:05:13.672Z,14.43
2018-05-15T03:06:13.705Z,14.46
2018-05-15T03:07:13.740Z,14.37
2018-05-15T03:08:13.772Z,14.42
2018-05-15T03:09:13.808Z,14.32
2018-05-15T03:10:13.839Z,14.28
2018-05-15T03:11:13.872Z,14.32
2018-05-15T03:12:13.904Z,14.25
2018-05-15T03:13:13.942Z,14.27
2018-05-15T03:14:13.972Z,14.36
2018-05-15T03:15:14.007Z,14.25
2018-05-15T03:16:14.041Z,14.25
2018-05-15T03:17:14.073Z,14.32
2018-05-15T03:18:14.106Z,14.29
2018-05-15T03:19:14.140Z,14.36
2018-05-15T03:20:14.173Z,14.21
2018-05-15T03:21:14.207Z,14.29
2018-05-15T03:22:14.240Z,14.32
2018-05-15T03:23:14.277Z,14.32
2018-05-15T03:24:14.308Z,14.33
2018-05-15T03:25:14.340Z,14.33
2018-05-15T03:26:14.374Z,14.35
2018-05-15T03:27:14.409Z,14.40
2018-05-15T03:28:14.443Z,14.39
2018-05-15T03:29:14.475Z,14.43
2018-05-15T03:30:14.508Z,14.27
2018-05-15T03:31:14.545Z,14.39
2018-05-15T03:32:14.574Z,14.42
2018-05-15T03:33:14.635Z,14.39
2018-05-15T03:34:14.643Z,14.42
2018-05-15T03:35:14.675Z,14.39
2018-05-15T03:36:14.709Z,14.43
2018-05-15T03:37:14.743Z,14.40
2018-05-15T03:38:14.776Z,14.40
2018-05-15T03:39:14.809Z,14.32
2018-05-15T03:40:14.843Z,14.37
2018-05-15T03:41:14.876Z,14.37
2018-05-15T03:42:14.910Z,14.37
2018-05-15T03:43:14.944Z,14.40
2018-05-15T03:44:14.977Z,14.42
2018-05-15T03:45:15.010Z,14.33
2018-05-15T03:46:15.044Z,14.36
2018-05-15T03:47:15.078Z,14.46
2018-05-15T03:48:15.110Z,14.45
2018-05-15T03:49:15.144Z,14.47
2018-05-15T03:50:15.178Z,14.47
2018-05-15T03:51:15.211Z,14.51
2018-05-15T03:52:15.248Z,14.47
2018-05-15T03:53:15.278Z,14.42
2018-05-15T03:54:15.311Z,14.33
2018-05-15T03:55:15.347Z,14.46
2018-05-15T03:56:15.378Z,14.37
2018-05-15T03:57:15.411Z,14.46
2018-05-15T03:58:15.445Z,14.47
2018-05-15T03:59:15.479Z,14.45
2018-05-15T04:00:15.512Z,14.45
2018-05-15T04:01:15.545Z,14.43
2018-05-15T04:02:15.673Z,14.36
2018-05-15T04:03:15.612Z,14.43
2018-05-15T04:04:15.645Z,14.28
2018-05-15T04:05:15.681Z,14.27
2018-05-15T04:06:15.713Z,14.28
2018-05-15T04:07:15.746Z,14.27
2018-05-15T04:08:15.777Z,14.21
2018-05-15T04:09:15.813Z,14.10
2018-05-15T04:10:15.846Z,14.10
2018-05-15T04:11:15.880Z,14.04
2018-05-15T04:12:15.913Z,14.10
2018-05-15T04:13:15.946Z,14.09
2018-05-15T04:14:15.981Z,14.14
2018-05-15T04:15:16.014Z,14.14
2018-05-15T04:16:16.047Z,14.27
2018-05-15T04:17:16.083Z,14.27
2018-05-15T04:18:16.117Z,14.25
2018-05-15T04:19:16.149Z,14.27
2018-05-15T04:20:16.181Z,14.37
2018-05-15T04:21:16.216Z,14.32
2018-05-15T04:22:16.250Z,14.40
2018-05-15T04:23:16.283Z,14.37
2018-05-15T04:24:16.316Z,14.29
2018-05-15T04:25:16.349Z,14.27
2018-05-15T04:26:16.383Z,14.27
2018-05-15T04:27:16.417Z,14.42
2018-05-15T04:28:16.497Z,14.46
2018-05-15T04:29:16.483Z,14.37
2018-05-15T04:30:16.523Z,14.39
2018-05-15T04:31:16.553Z,14.35
2018-05-15T04:32:16.585Z,14.45
2018-05-15T04:33:16.619Z,14.47
2018-05-15T04:34:16.652Z,14.47
2018-05-15T04:35:16.755Z,14.51
2018-05-15T04:36:16.720Z,14.54
2018-05-15T04:37:16.756Z,14.52
2018-05-15T04:38:16.788Z,14.47
2018-05-15T04:39:16.822Z,14.50
2018-05-15T04:40:16.857Z,14.54
2018-05-15T04:41:16.887Z,14.52
2018-05-15T04:42:16.922Z,14.52
2018-05-15T04:43:16.955Z,14.51
2018-05-15T04:44:16.988Z,14.51
2018-05-15T04:45:17.024Z,14.52
2018-05-15T04:46:17.056Z,14.45
2018-05-15T04:47:17.091Z,14.45
2018-05-15T04:48:17.122Z,14.51
2018-05-15T04:49:17.231Z,14.68
2018-05-15T04:50:17.191Z,14.61
2018-05-15T04:51:17.224Z,14.60
2018-05-15T04:52:17.257Z,14.60
2018-05-15T04:53:17.290Z,14.60
2018-05-15T04:54:17.325Z,14.60
2018-05-15T04:55:17.359Z,14.50
2018-05-15T04:56:17.390Z,14.60
2018-05-15T04:57:17.424Z,14.47
2018-05-15T04:58:17.458Z,14.51
2018-05-15T04:59:17.496Z,14.46
2018-05-15T05:00:17.527Z,14.58
2018-05-15T05:01:17.560Z,14.52
2018-05-15T05:02:17.593Z,14.60
2018-05-15T05:03:17.627Z,14.61
2018-05-15T05:04:17.660Z,14.60
2018-05-15T05:05:17.695Z,14.70
2018-05-15T05:06:17.727Z,14.70
2018-05-15T05:07:17.760Z,14.70
2018-05-15T05:08:17.797Z,14.68
2018-05-15T05:09:17.828Z,14.72
2018-05-15T05:10:17.862Z,14.69
2018-05-15T05:11:17.897Z,14.68
2018-05-15T05:12:17.929Z,14.70
2018-05-15T05:13:17.963Z,14.72
2018-05-15T05:14:17.997Z,14.77
2018-05-15T05:15:18.030Z,14.86
2018-05-15T05:16:18.064Z,14.86
2018-05-15T05:17:18.098Z,14.89
2018-05-15T05:18:18.133Z,14.86
2018-05-15T05:19:18.165Z,14.91
2018-05-15T05:20:18.198Z,14.98
2018-05-15T05:21:18.236Z,14.95
2018-05-15T05:22:18.267Z,14.77
2018-05-15T05:23:18.299Z,14.70
2018-05-15T05:24:18.334Z,14.72
2018-05-15T05:25:18.369Z,14.77
2018-05-15T05:26:18.401Z,14.68
2018-05-15T05:27:18.435Z,14.69
2018-05-15T05:28:18.468Z,14.70
2018-05-15T05:29:18.502Z,14.73
2018-05-15T05:30:18.536Z,14.83
2018-05-15T05:31:18.570Z,14.81
2018-05-15T05:32:18.603Z,14.86
2018-05-15T05:33:18.691Z,14.94
2018-05-15T05:34:18.671Z,14.91
2018-05-15T05:35:18.708Z,15.03
2018-05-15T05:36:18.739Z,14.94
2018-05-15T05:37:18.772Z,14.95
2018-05-15T05:38:18.806Z,14.95
2018-05-15T05:39:18.841Z,14.95
2018-05-15T05:40:18.873Z,14.99
2018-05-15T05:41:18.906Z,15.06
2018-05-15T05:42:18.941Z,15.03
2018-05-15T05:43:18.975Z,14.98
2018-05-15T05:44:19.008Z,14.94
2018-05-15T05:45:19.042Z,14.94
2018-05-15T05:46:19.086Z,14.89
2018-05-15T05:47:19.114Z,14.88
2018-05-15T05:48:19.142Z,14.94
2018-05-15T05:49:19.177Z,14.91
2018-05-15T05:50:19.211Z,14.94
2018-05-15T05:51:19.244Z,15.06
2018-05-15T05:52:19.280Z,14.95
2018-05-15T05:53:19.311Z,14.96
2018-05-15T05:54:19.345Z,15.01
2018-05-15T05:55:19.379Z,15.10
2018-05-15T05:56:19.416Z,15.21
2018-05-15T05:57:19.447Z,15.29
2018-05-15T05:58:19.479Z,15.41
2018-05-15T05:59:19.516Z,15.41
2018-05-15T06:00:19.548Z,15.41
2018-05-15T06:01:19.582Z,15.50
2018-05-15T06:02:19.614Z,15.60
2018-05-15T06:03:19.651Z,15.65
2018-05-15T06:04:19.731Z,15.62
2018-05-15T06:05:19.717Z,15.59
2018-05-15T06:06:19.751Z,15.64
2018-05-15T06:07:19.828Z,15.56
2018-05-15T06:08:19.819Z,15.47
2018-05-15T06:09:19.854Z,15.59
2018-05-15T06:10:19.888Z,15.59
2018-05-15T06:11:19.921Z,15.69
2018-05-15T06:12:19.957Z,15.74
2018-05-15T06:13:19.990Z,15.78
2018-05-15T06:14:20.087Z,15.76
2018-05-15T06:15:20.060Z,15.87
2018-05-15T06:16:20.096Z,15.83
2018-05-15T06:17:20.128Z,15.80
2018-05-15T06:18:20.162Z,15.90
2018-05-15T06:19:20.197Z,15.90
2018-05-15T06:20:20.231Z,15.72
2018-05-15T06:21:20.345Z,15.57
2018-05-15T06:22:20.301Z,15.68
2018-05-15T06:23:20.335Z,15.78
2018-05-15T06:24:20.369Z,15.86
2018-05-15T06:25:20.404Z,15.87
2018-05-15T06:26:20.444Z,15.86
2018-05-15T06:27:20.475Z,15.84
2018-05-15T06:28:20.510Z,15.90
2018-05-15T06:29:20.542Z,15.84
2018-05-15T06:30:20.577Z,15.75
2018-05-15T06:31:20.612Z,15.53
2018-05-15T06:32:20.719Z,15.47
2018-05-15T06:33:20.680Z,15.56
2018-05-15T06:34:20.715Z,15.59
2018-05-15T06:35:20.751Z,15.59
2018-05-15T06:36:20.784Z,15.65
2018-05-15T06:37:20.820Z,15.62
2018-05-15T06:38:20.855Z,15.69
2018-05-15T06:39:20.889Z,15.68
2018-05-15T06:40:20.923Z,15.59
2018-05-15T06:41:20.957Z,15.38
2018-05-15T06:42:20.992Z,15.36
2018-05-15T06:43:21.026Z,15.46
2018-05-15T06:44:21.061Z,15.38
2018-05-15T06:45:21.096Z,15.39
2018-05-15T06:46:21.131Z,15.51
2018-05-15T06:47:21.165Z,15.50
2018-05-15T06:48:21.207Z,15.44
2018-05-15T06:49:21.235Z,15.64
2018-05-15T06:50:21.269Z,15.60
2018-05-15T06:51:21.304Z,15.65
2018-05-15T06:52:21.337Z,15.82
2018-05-15T06:53:21.373Z,15.87
2018-05-15T06:54:21.406Z,15.87
2018-05-15T06:55:21.443Z,15.87
2018-05-15T06:56:21.480Z,15.83
2018-05-15T06:57:21.511Z,15.84
2018-05-15T06:58:21.546Z,15.90
2018-05-15T06:59:21.581Z,15.86
2018-05-15T07:00:21.616Z,15.82
2018-05-15T07:01:21.650Z,15.89
2018-05-15T07:02:21.685Z,15.93
2018-05-15T07:03:21.720Z,15.92
2018-05-15T07:04:21.754Z,15.87
2018-05-15T07:05:21.789Z,15.84
2018-05-15T07:06:21.823Z,15.96
2018-05-15T07:07:21.859Z,15.80
2018-05-15T07:08:21.893Z,15.60
2018-05-15T07:09:21.928Z,15.60
2018-05-15T07:10:21.963Z,15.59
2018-05-15T07:11:21.998Z,15.59
2018-05-15T07:12:22.032Z,15.62
2018-05-15T07:13:22.070Z,15.62
2018-05-15T07:14:22.102Z,15.82
2018-05-15T07:15:22.138Z,15.64
2018-05-15T07:16:22.171Z,15.56
2018-05-15T07:17:22.207Z,15.59
2018-05-15T07:18:22.245Z,15.53
2018-05-15T07:19:22.318Z,15.44
2018-05-15T07:20:22.310Z,15.44
2018-05-15T07:21:22.344Z,15.59
2018-05-15T07:22:22.381Z,15.62
2018-05-15T07:23:22.416Z,15.57
2018-05-15T07:24:22.450Z,15.59
2018-05-15T07:25:22.485Z,15.67
2018-05-15T07:26:22.520Z,15.67
2018-05-15T07:27:22.593Z,15.68
2018-05-15T07:28:22.590Z,15.69
2018-05-15T07:29:22.630Z,15.74
2018-05-15T07:30:22.658Z,15.71
2018-05-15T07:31:22.695Z,15.74
2018-05-15T07:32:22.728Z,15.83
2018-05-15T07:33:22.766Z,15.90
2018-05-15T07:34:22.799Z,15.80
2018-05-15T07:35:22.838Z,15.87
2018-05-15T07:36:22.868Z,15.94
2018-05-15T07:37:22.903Z,16.09
2018-05-15T07:38:22.938Z,16.14
2018-05-15T07:39:22.975Z,16.09
2018-05-15T07:40:23.054Z,16.15
2018-05-15T07:41:23.043Z,16.09
2018-05-15T07:42:23.079Z,16.15
2018-05-15T07:43:23.114Z,16.12
2018-05-15T07:44:23.147Z,16.23
2018-05-15T07:45:23.184Z,16.17
2018-05-15T07:46:23.219Z,16.38
2018-05-15T07:47:23.254Z,16.30
2018-05-15T07:48:23.288Z,16.35
2018-05-15T07:49:23.326Z,16.48
2018-05-15T07:50:23.364Z,16.42
2018-05-15T07:51:23.396Z,16.58
2018-05-15T07:52:23.430Z,16.76
2018-05-15T07:53:23.465Z,16.85
2018-05-15T07:54:23.501Z,16.93
2018-05-15T07:55:23.537Z,16.96
2018-05-15T07:56:23.571Z,16.97
2018-05-15T07:57:23.607Z,16.78
2018-05-15T07:58:23.643Z,16.58
2018-05-15T07:59:23.679Z,16.58
2018-05-15T08:00:23.713Z,16.67
2018-05-15T08:01:23.751Z,16.63
2018-05-15T08:02:23.784Z,16.85
2018-05-15T08:03:23.822Z,16.82
2018-05-15T08:04:23.860Z,16.82
2018-05-15T08:05:23.892Z,16.81
2018-05-15T08:06:23.928Z,16.63
2018-05-15T08:07:23.966Z,16.67
2018-05-15T08:08:24.000Z,16.76
2018-05-15T08:09:24.036Z,16.70
2018-05-15T08:10:24.074Z,16.76
2018-05-15T08:11:24.109Z,16.78
2018-05-15T08:12:24.143Z,16.79
2018-05-15T08:13:24.186Z,16.70
2018-05-15T08:14:24.215Z,16.70
2018-05-15T08:15:24.252Z,16.63
2018-05-15T08:16:24.290Z,16.67
2018-05-15T08:17:24.321Z,16.67
2018-05-15T08:18:24.361Z,16.43
2018-05-15T08:19:24.397Z,16.43
2018-05-15T08:20:24.430Z,16.34
2018-05-15T08:21:24.466Z,16.39
2018-05-15T08:22:24.588Z,16.46
2018-05-15T08:23:24.540Z,16.49
2018-05-15T08:24:24.578Z,16.67
2018-05-15T08:25:24.609Z,16.82
2018-05-15T08:26:24.645Z,16.82
2018-05-15T08:27:24.681Z,16.93
2018-05-15T08:28:24.719Z,17.01
2018-05-15T08:29:24.755Z,17.06
2018-05-15T08:30:24.788Z,17.08
2018-05-15T08:31:24.822Z,17.19
2018-05-15T08:32:24.857Z,17.33
2018-05-15T08:33:24.893Z,17.38
2018-05-15T08:34:24.929Z,17.37
2018-05-15T08:35:24.966Z,17.48
2018-05-15T08:36:25.001Z,17.55
2018-05-15T08:37:25.125Z,17.66
2018-05-15T08:38:25.073Z,17.74
2018-05-15T08:39:25.109Z,17.68
2018-05-15T08:40:25.144Z,17.66
2018-05-15T08:41:25.189Z,17.56
2018-05-15T08:42:25.217Z,17.84
2018-05-15T08:43:25.253Z,17.78
2018-05-15T08:44:25.349Z,17.62
2018-05-15T08:45:25.374Z,17.59
2018-05-15T08:46:25.362Z,17.51
2018-05-15T08:47:25.398Z,17.56
2018-05-15T08:48:25.433Z,17.55
2018-05-15T08:49:25.484Z,17.33
2018-05-15T08:50:25.506Z,17.16
2018-05-15T08:51:25.604Z,17.16
2018-05-15T08:52:25.578Z,17.25
2018-05-15T08:53:25.615Z,17.36
2018-05-15T08:54:25.651Z,17.48
2018-05-15T08:55:25.688Z,17.59
2018-05-15T08:56:25.722Z,17.71
2018-05-15T08:57:25.759Z,17.62
2018-05-15T08:58:25.795Z,17.59
2018-05-15T08:59:25.832Z,17.62
2018-05-15T09:00:25.867Z,17.46
2018-05-15T09:01:25.903Z,17.51
2018-05-15T09:02:25.940Z,17.63
2018-05-15T09:03:25.977Z,17.81
2018-05-15T09:04:26.015Z,17.84
2018-05-15T09:05:26.048Z,18.08
2018-05-15T09:06:26.084Z,18.33
2018-05-15T09:07:26.122Z,18.85
2018-05-15T09:08:26.157Z,19.26
2018-05-15T09:09:26.196Z,19.50
2018-05-15T09:10:26.231Z,19.63
2018-05-15T09:11:26.269Z,19.59
2018-05-15T09:12:26.304Z,19.63
2018-05-15T09:13:26.342Z,19.43
2018-05-15T09:14:26.379Z,19.16
2018-05-15T09:15:26.418Z,19.02
2018-05-15T09:16:26.454Z,18.65
2018-05-15T09:17:26.491Z,18.70
2018-05-15T09:18:26.529Z,18.75
2018-05-15T09:19:26.567Z,18.72
2018-05-15T09:20:26.604Z,18.67
2018-05-15T09:21:26.641Z,18.44
2018-05-15T09:22:26.679Z,18.39
2018-05-15T09:23:26.719Z,18.25
2018-05-15T09:24:26.754Z,18.36
2018-05-15T09:25:26.792Z,18.45
2018-05-15T09:26:26.830Z,18.55
2018-05-15T09:27:26.872Z,18.55
2018-05-15T09:28:26.906Z,18.58
2018-05-15T09:29:27.044Z,18.54
2018-05-15T09:30:26.988Z,18.36
2018-05-15T09:31:27.020Z,18.32
2018-05-15T09:32:27.055Z,18.44
2018-05-15T09:33:27.099Z,18.36
2018-05-15T09:34:27.133Z,18.37
2018-05-15T09:35:27.171Z,18.51
2018-05-15T09:36:27.247Z,18.44
2018-05-15T09:37:27.244Z,18.58
2018-05-15T09:38:27.282Z,18.70
2018-05-15T09:39:27.320Z,18.76
2018-05-15T09:40:27.356Z,18.88
2018-05-15T09:41:27.395Z,18.90
2018-05-15T09:42:27.434Z,18.80
2018-05-15T09:43:27.472Z,18.66
2018-05-15T09:44:27.508Z,18.88
2018-05-15T09:45:27.545Z,19.19
2018-05-15T09:46:27.583Z,19.37
2018-05-15T09:47:27.622Z,19.88
2018-05-15T09:48:27.659Z,20.66
2018-05-15T09:49:27.697Z,21.22
2018-05-15T09:50:27.734Z,21.61
2018-05-15T09:51:30.394Z,21.84
2018-05-15T09:52:27.809Z,22.27
2018-05-15T09:53:27.865Z,22.45
2018-05-15T09:54:27.890Z,22.52
2018-05-15T09:55:27.925Z,22.43
2018-05-15T09:56:27.966Z,22.06
2018-05-15T09:57:28.003Z,21.84
2018-05-15T09:58:28.043Z,22.03
2018-05-15T09:59:28.082Z,21.68
2018-05-15T10:00:28.121Z,22.02
2018-05-15T10:01:28.160Z,22.15
2018-05-15T10:02:28.200Z,21.86
2018-05-15T10:03:28.243Z,22.21
2018-05-15T10:04:28.279Z,22.09
2018-05-15T10:05:28.319Z,22.67
2018-05-15T10:06:28.360Z,22.46
2018-05-15T10:07:28.401Z,22.49
2018-05-15T10:08:28.439Z,22.35
2018-05-15T10:09:28.484Z,22.28
2018-05-15T10:10:28.524Z,22.57
2018-05-15T10:11:28.567Z,22.65
2018-05-15T10:12:28.602Z,22.40
2018-05-15T10:13:28.645Z,22.25
2018-05-15T10:14:28.685Z,22.60
2018-05-15T10:15:28.726Z,22.77
2018-05-15T10:16:28.766Z,22.24
2018-05-15T10:17:28.808Z,21.83
2018-05-15T10:18:28.850Z,21.19
2018-05-15T10:19:28.890Z,21.14
2018-05-15T10:20:28.931Z,21.25
2018-05-15T10:24:29.521Z,21.49
2018-05-15T10:25:29.136Z,21.59
2018-05-15T10:26:29.200Z,21.35
2018-05-15T10:27:29.219Z,20.66
2018-05-15T10:28:29.259Z,20.74
2018-05-15T10:29:29.301Z,20.79
2018-05-15T10:30:29.342Z,20.77
2018-05-15T10:31:29.387Z,20.61
2018-05-15T10:32:29.425Z,21.01
2018-05-15T10:33:29.468Z,21.72
2018-05-15T10:34:29.508Z,21.59
2018-05-15T10:36:29.609Z,21.59
2018-05-15T10:37:29.631Z,22.30
2018-05-15T10:38:29.696Z,22.57
2018-05-15T10:39:29.719Z,23.57
2018-05-15T10:40:29.757Z,23.40
2018-05-15T10:41:29.799Z,23.66
2018-05-15T10:42:29.841Z,23.87
2018-05-15T10:43:29.888Z,23.97
2018-05-15T10:44:30.146Z,24.02
2018-05-15T10:47:30.060Z,25.32
2018-05-15T10:48:30.100Z,24.95
2018-05-15T10:49:30.149Z,24.21
2018-05-15T10:50:30.190Z,24.43
2018-05-15T10:51:30.234Z,24.25
2018-05-15T10:52:30.278Z,24.02
2018-05-15T10:53:30.326Z,24.12
2018-05-15T10:54:30.368Z,24.73
2018-05-15T10:55:30.413Z,25.20
2018-05-15T10:56:30.456Z,25.61
2018-05-15T10:57:30.502Z,25.46
2018-05-15T10:58:30.550Z,25.72
2018-05-15T10:59:30.610Z,25.97
2018-05-15T11:00:30.638Z,25.70
2018-05-15T11:01:30.684Z,25.10
2018-05-15T11:02:30.735Z,25.70
2018-05-15T11:03:30.776Z,25.13
2018-05-15T11:04:30.822Z,24.49
2018-05-15T11:05:30.869Z,24.81
2018-05-15T11:06:31.365Z,25.00
2018-05-15T11:07:30.962Z,24.25
2018-05-15T11:08:31.034Z,24.00
2018-05-15T11:09:31.057Z,23.60
2018-05-15T11:10:31.124Z,23.90
2018-05-15T11:11:31.368Z,25.69
2018-05-15T11:12:31.417Z,26.23
2018-05-15T11:13:31.245Z,26.95
2018-05-15T11:14:31.284Z,28.21
2018-05-15T11:15:31.337Z,29.48
2018-05-15T11:16:31.375Z,30.34
2018-05-15T11:17:31.427Z,29.71
2018-05-15T11:18:31.470Z,28.34
2018-05-15T11:19:31.517Z,28.81
2018-05-15T11:20:31.565Z,28.76
2018-05-15T11:21:31.613Z,29.31
2018-05-15T11:22:31.660Z,29.98
2018-05-15T11:23:31.709Z,29.51
2018-05-15T11:24:31.848Z,29.43
2018-05-15T11:25:31.806Z,29.08
2018-05-15T11:26:31.854Z,29.16
2018-05-15T11:27:31.904Z,29.09
2018-05-15T11:28:31.953Z,30.01
2018-05-15T11:29:32.003Z,30.15
2018-05-15T11:30:32.147Z,29.80
2018-05-15T11:31:32.102Z,29.85
2018-05-15T11:32:32.150Z,30.23
2018-05-15T11:33:32.200Z,29.30
2018-05-15T11:34:32.252Z,30.13
2018-05-15T11:35:32.302Z,30.49
2018-05-15T11:36:32.350Z,29.46
2018-05-15T11:37:32.400Z,29.60
2018-05-15T11:38:32.450Z,28.49
2018-05-15T11:39:32.500Z,29.00
2018-05-15T11:40:32.548Z,29.76
2018-05-15T11:41:32.638Z,30.34
2018-05-15T11:42:32.648Z,30.35
2018-05-15T11:43:32.698Z,28.95
2018-05-15T11:44:32.802Z,29.60
2018-05-15T11:45:32.803Z,30.23
2018-05-15T11:46:32.847Z,31.54
2018-05-15T11:47:32.956Z,32.56
2018-05-15T11:48:33.347Z,33.23
2018-05-15T11:49:33.229Z,33.37
2018-05-15T11:50:34.046Z,33.82
2018-05-15T11:51:33.943Z,32.38
2018-05-15T11:52:33.545Z,30.27
2018-05-15T11:53:33.205Z,29.12
2018-05-15T11:54:33.255Z,29.41
2018-05-15T11:55:35.295Z,28.71
2018-05-15T11:56:33.449Z,27.99
2018-05-15T11:57:33.407Z,27.06
2018-05-15T11:58:33.459Z,25.90
2018-05-15T11:59:33.512Z,25.70
2018-05-15T12:00:33.568Z,25.45
2018-05-15T12:01:33.614Z,24.05
2018-05-15T12:02:33.737Z,23.70
2018-05-15T12:03:33.716Z,23.23
2018-05-15T12:04:33.765Z,23.28
2018-05-15T12:05:33.814Z,24.50
2018-05-15T12:06:33.950Z,25.64
2018-05-15T12:07:33.912Z,26.62
2018-05-15T12:08:33.960Z,26.81
2018-05-15T12:09:34.011Z,26.28
2018-05-15T12:10:34.123Z,26.62
2018-05-15T12:11:34.157Z,27.47
2018-05-15T12:12:34.155Z,28.19
2018-05-15T12:13:34.202Z,29.24
2018-05-15T12:14:34.250Z,28.40
2018-05-15T12:15:34.297Z,26.13
2018-05-15T12:16:34.344Z,26.30
2018-05-15T12:17:34.391Z,27.81
2018-05-15T12:18:34.479Z,28.39
2018-05-15T12:19:34.488Z,28.71
2018-05-15T12:20:34.534Z,28.54
2018-05-15T12:21:34.582Z,29.53
2018-05-15T12:22:34.630Z,30.88
2018-05-15T12:23:34.679Z,28.83
2018-05-15T12:24:34.826Z,27.84
2018-05-15T12:25:34.774Z,27.07
2018-05-15T12:26:34.823Z,27.97
2018-05-15T12:27:34.871Z,28.36
2018-05-15T12:28:34.918Z,28.39
2018-05-15T12:29:34.967Z,28.22
2018-05-15T12:30:35.016Z,28.80
2018-05-15T12:31:35.070Z,29.34
2018-05-15T12:32:35.113Z,29.14
2018-05-15T12:33:35.164Z,29.00
2018-05-15T12:34:35.212Z,28.54
2018-05-15T12:35:35.263Z,28.81
2018-05-15T12:36:35.312Z,28.46
2018-05-15T12:37:35.361Z,28.07
2018-05-15T12:38:35.411Z,26.54
2018-05-15T12:39:35.460Z,27.78
2018-05-15T12:40:35.511Z,26.88
2018-05-15T12:41:35.584Z,26.47
2018-05-15T12:42:35.610Z,25.82
2018-05-15T12:43:35.659Z,26.07
2018-05-15T12:44:35.707Z,27.92
2018-05-15T12:45:35.759Z,29.18
2018-05-15T12:46:35.835Z,29.82
2018-05-15T12:47:35.854Z,27.18
2018-05-15T12:48:35.908Z,27.04
2018-05-15T12:49:35.950Z,27.09
2018-05-15T12:50:35.999Z,27.19
2018-05-15T12:51:36.049Z,26.58
2018-05-15T12:52:36.096Z,25.58
2018-05-15T12:53:36.145Z,25.15
2018-05-15T12:54:36.192Z,25.08
2018-05-15T12:55:36.254Z,24.71
2018-05-15T12:56:36.288Z,26.17
2018-05-15T12:57:36.335Z,25.54
2018-05-15T12:58:36.384Z,24.61